sensor_id;sensor_type;location;lat;lon;timestamp;temperature;humidity
18408;DHT22;9330;52.210;21.174;2022-07-30T00:01:55;17.60;99.90
18408;DHT22;9330;52.210;21.174;2022-07-30T00:04:22;17.60;99.90
18408;DHT22;9330;52.210;21.174;2022-07-30T00:06:50;17.60;99.90
18408;DHT22;9330;52.210;21.174;2022-07-30T00:09:17;17.50;99.90
18408;DHT22;9330;52.210;21.174;2022-07-30T00:11:44;17.50;99.90
18408;DHT22;9330;52.210;21.174;2022-07-30T00:14:11;17.50;99.90
18408;DHT22;9330;52.210;21.174;2022-07-30T00:16:38;17.50;99.90
18408;DHT22;9330;52.210;21.174;2022-07-30T00:19:06;17.50;99.90
18408;DHT22;9330;52.210;21.174;2022-07-30T00:21:34;17.50;99.90
18408;DHT22;9330;52.210;21.174;2022-07-30T00:24:01;17.50;99.90
18408;DHT22;9330;52.210;21.174;2022-07-30T00:26:29;17.40;99.90
18408;DHT22;9330;52.210;21.174;2022-07-30T00:28:56;17.40;99.90
18408;DHT22;9330;52.210;21.174;2022-07-30T00:31:23;17.40;99.90
18408;DHT22;9330;52.210;21.174;2022-07-30T00:33:50;17.40;99.90
18408;DHT22;9330;52.210;21.174;2022-07-30T00:36:18;17.40;99.90
18408;DHT22;9330;52.210;21.174;2022-07-30T00:38:46;17.40;99.90
18408;DHT22;9330;52.210;21.174;2022-07-30T00:41:13;17.30;99.90
18408;DHT22;9330;52.210;21.174;2022-07-30T00:43:40;17.30;99.90
18408;DHT22;9330;52.210;21.174;2022-07-30T00:46:07;17.20;99.90
18408;DHT22;9330;52.210;21.174;2022-07-30T00:48:34;17.20;99.90
18408;DHT22;9330;52.210;21.174;2022-07-30T00:51:01;17.20;99.90
18408;DHT22;9330;52.210;21.174;2022-07-30T00:53:29;17.20;99.90
18408;DHT22;9330;52.210;21.174;2022-07-30T00:55:57;17.10;99.90
18408;DHT22;9330;52.210;21.174;2022-07-30T00:58:24;17.10;99.90
18408;DHT22;9330;52.210;21.174;2022-07-30T01:00:51;17.10;99.90
18408;DHT22;9330;52.210;21.174;2022-07-30T01:03:18;17.10;99.90
18408;DHT22;9330;52.210;21.174;2022-07-30T01:05:45;17.10;99.90
18408;DHT22;9330;52.210;21.174;2022-07-30T01:08:12;17.10;99.90
18408;DHT22;9330;52.210;21.174;2022-07-30T01:10:41;17.10;99.90
18408;DHT22;9330;52.210;21.174;2022-07-30T01:13:08;17.00;99.90
18408;DHT22;9330;52.210;21.174;2022-07-30T01:15:35;17.00;99.90
18408;DHT22;9330;52.210;21.174;2022-07-30T01:18:05;17.00;99.90
18408;DHT22;9330;52.210;21.174;2022-07-30T01:20:37;17.00;99.90
18408;DHT22;9330;52.210;21.174;2022-07-30T01:23:09;17.00;99.90
18408;DHT22;9330;52.210;21.174;2022-07-30T01:25:52;16.90;99.90
18408;DHT22;9330;52.210;21.174;2022-07-30T01:28:23;16.90;99.90
18408;DHT22;9330;52.210;21.174;2022-07-30T01:30:53;17.00;99.90
18408;DHT22;9330;52.210;21.174;2022-07-30T01:33:22;16.90;99.90
18408;DHT22;9330;52.210;21.174;2022-07-30T01:35:50;16.90;99.90
18408;DHT22;9330;52.210;21.174;2022-07-30T01:38:19;16.80;99.90
18408;DHT22;9330;52.210;21.174;2022-07-30T01:40:49;16.80;99.90
18408;DHT22;9330;52.210;21.174;2022-07-30T01:43:18;16.80;99.90
18408;DHT22;9330;52.210;21.174;2022-07-30T01:45:46;16.80;99.90
18408;DHT22;9330;52.210;21.174;2022-07-30T01:48:16;16.80;99.90
18408;DHT22;9330;52.210;21.174;2022-07-30T01:50:45;16.80;99.90
18408;DHT22;9330;52.210;21.174;2022-07-30T01:53:16;16.80;99.90
18408;DHT22;9330;52.210;21.174;2022-07-30T01:55:46;16.80;99.90
18408;DHT22;9330;52.210;21.174;2022-07-30T01:58:17;16.70;99.90
18408;DHT22;9330;52.210;21.174;2022-07-30T02:00:48;16.70;99.90
18408;DHT22;9330;52.210;21.174;2022-07-30T02:03:15;16.70;99.90
18408;DHT22;9330;52.210;21.174;2022-07-30T02:05:46;16.70;99.90
18408;DHT22;9330;52.210;21.174;2022-07-30T02:08:20;16.70;99.90
18408;DHT22;9330;52.210;21.174;2022-07-30T02:10:51;16.80;99.90
18408;DHT22;9330;52.210;21.174;2022-07-30T02:13:24;16.70;99.90
18408;DHT22;9330;52.210;21.174;2022-07-30T02:15:56;16.70;99.90
18408;DHT22;9330;52.210;21.174;2022-07-30T02:18:30;16.70;99.90
18408;DHT22;9330;52.210;21.174;2022-07-30T02:21:00;16.70;99.90
18408;DHT22;9330;52.210;21.174;2022-07-30T02:23:30;16.60;99.90
18408;DHT22;9330;52.210;21.174;2022-07-30T02:26:01;16.60;99.90
18408;DHT22;9330;52.210;21.174;2022-07-30T02:28:35;16.70;99.90
18408;DHT22;9330;52.210;21.174;2022-07-30T02:31:05;16.60;99.90
18408;DHT22;9330;52.210;21.174;2022-07-30T02:33:37;16.60;99.90
18408;DHT22;9330;52.210;21.174;2022-07-30T02:36:06;16.60;99.90
18408;DHT22;9330;52.210;21.174;2022-07-30T02:38:36;16.60;99.90
18408;DHT22;9330;52.210;21.174;2022-07-30T02:41:04;16.60;99.90
18408;DHT22;9330;52.210;21.174;2022-07-30T02:43:35;16.50;99.90
18408;DHT22;9330;52.210;21.174;2022-07-30T02:46:03;16.60;99.90
18408;DHT22;9330;52.210;21.174;2022-07-30T02:48:32;16.60;99.90
18408;DHT22;9330;52.210;21.174;2022-07-30T02:51:00;16.60;99.90
18408;DHT22;9330;52.210;21.174;2022-07-30T02:53:29;16.50;99.90
18408;DHT22;9330;52.210;21.174;2022-07-30T02:55:57;16.50;99.90
18408;DHT22;9330;52.210;21.174;2022-07-30T02:58:26;16.50;99.90
18408;DHT22;9330;52.210;21.174;2022-07-30T03:00:56;16.50;99.90
18408;DHT22;9330;52.210;21.174;2022-07-30T03:03:25;16.50;99.90
18408;DHT22;9330;52.210;21.174;2022-07-30T03:05:55;16.50;99.90
18408;DHT22;9330;52.210;21.174;2022-07-30T03:08:22;16.50;99.90
18408;DHT22;9330;52.210;21.174;2022-07-30T03:10:51;16.50;99.90
18408;DHT22;9330;52.210;21.174;2022-07-30T03:13:21;16.50;99.90
18408;DHT22;9330;52.210;21.174;2022-07-30T03:15:50;16.50;99.90
18408;DHT22;9330;52.210;21.174;2022-07-30T03:18:21;16.50;99.90
18408;DHT22;9330;52.210;21.174;2022-07-30T03:20:50;16.50;99.90
18408;DHT22;9330;52.210;21.174;2022-07-30T03:23:18;16.50;99.90
18408;DHT22;9330;52.210;21.174;2022-07-30T03:25:49;16.50;99.90
18408;DHT22;9330;52.210;21.174;2022-07-30T03:28:19;16.50;99.90
18408;DHT22;9330;52.210;21.174;2022-07-30T03:30:47;16.50;99.90
18408;DHT22;9330;52.210;21.174;2022-07-30T03:33:14;16.50;99.90
18408;DHT22;9330;52.210;21.174;2022-07-30T03:35:43;16.60;99.90
18408;DHT22;9330;52.210;21.174;2022-07-30T03:38:12;16.50;99.90
18408;DHT22;9330;52.210;21.174;2022-07-30T03:40:40;16.60;99.90
18408;DHT22;9330;52.210;21.174;2022-07-30T03:43:08;16.60;99.90
18408;DHT22;9330;52.210;21.174;2022-07-30T03:45:37;16.60;99.90
18408;DHT22;9330;52.210;21.174;2022-07-30T03:48:07;16.60;99.90
18408;DHT22;9330;52.210;21.174;2022-07-30T03:50:35;16.60;99.90
18408;DHT22;9330;52.210;21.174;2022-07-30T03:53:05;16.60;99.90
18408;DHT22;9330;52.210;21.174;2022-07-30T03:55:32;16.60;99.90
18408;DHT22;9330;52.210;21.174;2022-07-30T03:58:00;16.60;99.90
18408;DHT22;9330;52.210;21.174;2022-07-30T04:00:28;16.60;99.90
18408;DHT22;9330;52.210;21.174;2022-07-30T04:02:55;16.70;99.90
18408;DHT22;9330;52.210;21.174;2022-07-30T04:05:22;16.60;99.90
18408;DHT22;9330;52.210;21.174;2022-07-30T04:07:49;16.60;99.90
18408;DHT22;9330;52.210;21.174;2022-07-30T04:10:18;16.60;99.90
18408;DHT22;9330;52.210;21.174;2022-07-30T04:12:45;16.60;99.90
18408;DHT22;9330;52.210;21.174;2022-07-30T04:15:12;16.60;99.90
18408;DHT22;9330;52.210;21.174;2022-07-30T04:17:43;16.60;99.90
18408;DHT22;9330;52.210;21.174;2022-07-30T04:20:13;16.60;99.90
18408;DHT22;9330;52.210;21.174;2022-07-30T04:22:44;16.70;99.90
18408;DHT22;9330;52.210;21.174;2022-07-30T04:25:11;16.60;99.90
18408;DHT22;9330;52.210;21.174;2022-07-30T04:27:40;16.70;99.90
18408;DHT22;9330;52.210;21.174;2022-07-30T04:30:08;16.80;99.90
18408;DHT22;9330;52.210;21.174;2022-07-30T04:32:36;16.80;99.90
18408;DHT22;9330;52.210;21.174;2022-07-30T04:35:03;16.80;99.90
18408;DHT22;9330;52.210;21.174;2022-07-30T04:37:31;16.80;99.90
18408;DHT22;9330;52.210;21.174;2022-07-30T04:39:58;16.80;99.90
18408;DHT22;9330;52.210;21.174;2022-07-30T04:42:26;16.90;99.90
18408;DHT22;9330;52.210;21.174;2022-07-30T04:44:55;16.90;99.90
18408;DHT22;9330;52.210;21.174;2022-07-30T04:47:23;16.90;99.90
18408;DHT22;9330;52.210;21.174;2022-07-30T04:49:51;16.90;99.90
18408;DHT22;9330;52.210;21.174;2022-07-30T04:52:20;17.00;99.90
18408;DHT22;9330;52.210;21.174;2022-07-30T04:54:52;17.00;99.90
18408;DHT22;9330;52.210;21.174;2022-07-30T04:57:20;17.10;99.90
18408;DHT22;9330;52.210;21.174;2022-07-30T04:59:48;17.30;99.90
18408;DHT22;9330;52.210;21.174;2022-07-30T05:02:19;17.30;99.90
18408;DHT22;9330;52.210;21.174;2022-07-30T05:04:46;17.30;99.90
18408;DHT22;9330;52.210;21.174;2022-07-30T05:07:15;17.40;99.90
18408;DHT22;9330;52.210;21.174;2022-07-30T05:09:42;17.50;99.90
18408;DHT22;9330;52.210;21.174;2022-07-30T05:12:09;17.50;99.90
18408;DHT22;9330;52.210;21.174;2022-07-30T05:14:36;17.60;99.90
18408;DHT22;9330;52.210;21.174;2022-07-30T05:17:04;17.60;99.90
18408;DHT22;9330;52.210;21.174;2022-07-30T05:19:33;17.70;99.90
18408;DHT22;9330;52.210;21.174;2022-07-30T05:22:00;17.80;99.90
18408;DHT22;9330;52.210;21.174;2022-07-30T05:24:27;18.00;99.90
18408;DHT22;9330;52.210;21.174;2022-07-30T05:26:54;18.10;99.90
18408;DHT22;9330;52.210;21.174;2022-07-30T05:29:21;18.20;99.90
18408;DHT22;9330;52.210;21.174;2022-07-30T05:31:48;18.30;99.90
18408;DHT22;9330;52.210;21.174;2022-07-30T05:34:15;18.50;99.90
18408;DHT22;9330;52.210;21.174;2022-07-30T05:36:44;18.50;99.90
18408;DHT22;9330;52.210;21.174;2022-07-30T05:39:11;18.60;99.90
18408;DHT22;9330;52.210;21.174;2022-07-30T05:41:38;18.60;99.90
18408;DHT22;9330;52.210;21.174;2022-07-30T05:44:05;18.50;99.90
18408;DHT22;9330;52.210;21.174;2022-07-30T05:46:32;18.50;99.90
18408;DHT22;9330;52.210;21.174;2022-07-30T05:48:59;18.50;99.90
18408;DHT22;9330;52.210;21.174;2022-07-30T05:51:26;18.50;99.90
18408;DHT22;9330;52.210;21.174;2022-07-30T05:53:55;18.50;99.90
18408;DHT22;9330;52.210;21.174;2022-07-30T05:56:22;18.50;99.90
18408;DHT22;9330;52.210;21.174;2022-07-30T05:58:49;18.50;99.90
18408;DHT22;9330;52.210;21.174;2022-07-30T06:01:16;18.40;99.90
18408;DHT22;9330;52.210;21.174;2022-07-30T06:03:43;18.50;99.90
18408;DHT22;9330;52.210;21.174;2022-07-30T06:06:10;18.50;99.90
18408;DHT22;9330;52.210;21.174;2022-07-30T06:08:37;18.50;99.90
18408;DHT22;9330;52.210;21.174;2022-07-30T06:11:06;18.50;99.90
18408;DHT22;9330;52.210;21.174;2022-07-30T06:13:34;18.50;99.90
18408;DHT22;9330;52.210;21.174;2022-07-30T06:16:02;18.50;99.90
18408;DHT22;9330;52.210;21.174;2022-07-30T06:18:30;18.50;99.90
18408;DHT22;9330;52.210;21.174;2022-07-30T06:20:56;18.50;99.90
18408;DHT22;9330;52.210;21.174;2022-07-30T06:23:23;18.50;99.90
18408;DHT22;9330;52.210;21.174;2022-07-30T06:25:50;18.60;99.90
18408;DHT22;9330;52.210;21.174;2022-07-30T06:28:19;18.50;99.90
18408;DHT22;9330;52.210;21.174;2022-07-30T06:30:46;18.50;99.90
18408;DHT22;9330;52.210;21.174;2022-07-30T06:33:13;18.50;99.90
18408;DHT22;9330;52.210;21.174;2022-07-30T06:35:40;18.50;99.90
18408;DHT22;9330;52.210;21.174;2022-07-30T06:38:08;18.70;99.90
18408;DHT22;9330;52.210;21.174;2022-07-30T06:40:35;18.60;99.90
18408;DHT22;9330;52.210;21.174;2022-07-30T06:43:02;18.70;99.90
18408;DHT22;9330;52.210;21.174;2022-07-30T06:45:31;18.70;99.90
18408;DHT22;9330;52.210;21.174;2022-07-30T06:47:58;18.80;99.90
18408;DHT22;9330;52.210;21.174;2022-07-30T06:50:26;18.90;99.90
18408;DHT22;9330;52.210;21.174;2022-07-30T06:52:53;18.90;99.90
18408;DHT22;9330;52.210;21.174;2022-07-30T06:55:20;19.00;99.90
18408;DHT22;9330;52.210;21.174;2022-07-30T06:57:47;19.10;99.90
18408;DHT22;9330;52.210;21.174;2022-07-30T07:00:14;19.20;99.90
18408;DHT22;9330;52.210;21.174;2022-07-30T07:02:43;19.20;99.90
18408;DHT22;9330;52.210;21.174;2022-07-30T07:05:10;19.30;99.90
18408;DHT22;9330;52.210;21.174;2022-07-30T07:07:38;19.40;99.90
18408;DHT22;9330;52.210;21.174;2022-07-30T07:10:06;19.40;99.90
18408;DHT22;9330;52.210;21.174;2022-07-30T07:12:35;19.40;99.90
18408;DHT22;9330;52.210;21.174;2022-07-30T07:15:02;19.40;99.90
18408;DHT22;9330;52.210;21.174;2022-07-30T07:17:29;19.50;99.90
18408;DHT22;9330;52.210;21.174;2022-07-30T07:19:58;19.60;99.90
18408;DHT22;9330;52.210;21.174;2022-07-30T07:22:25;19.70;99.90
18408;DHT22;9330;52.210;21.174;2022-07-30T07:24:52;19.80;99.90
18408;DHT22;9330;52.210;21.174;2022-07-30T07:27:19;19.90;99.90
18408;DHT22;9330;52.210;21.174;2022-07-30T07:29:46;20.00;99.90
18408;DHT22;9330;52.210;21.174;2022-07-30T07:32:13;20.00;99.90
18408;DHT22;9330;52.210;21.174;2022-07-30T07:34:40;20.00;99.90
18408;DHT22;9330;52.210;21.174;2022-07-30T07:37:08;20.00;99.90
18408;DHT22;9330;52.210;21.174;2022-07-30T07:39:35;20.10;99.90
18408;DHT22;9330;52.210;21.174;2022-07-30T07:42:03;20.10;99.90
18408;DHT22;9330;52.210;21.174;2022-07-30T07:44:30;20.20;99.90
18408;DHT22;9330;52.210;21.174;2022-07-30T07:46:57;20.30;99.90
18408;DHT22;9330;52.210;21.174;2022-07-30T07:49:24;20.40;99.90
18408;DHT22;9330;52.210;21.174;2022-07-30T07:51:51;20.50;99.90
18408;DHT22;9330;52.210;21.174;2022-07-30T07:54:19;20.70;99.90
18408;DHT22;9330;52.210;21.174;2022-07-30T07:56:47;21.20;99.90
18408;DHT22;9330;52.210;21.174;2022-07-30T07:59:16;21.60;99.90
18408;DHT22;9330;52.210;21.174;2022-07-30T08:01:43;21.70;99.90
18408;DHT22;9330;52.210;21.174;2022-07-30T08:04:11;21.80;99.90
18408;DHT22;9330;52.210;21.174;2022-07-30T08:06:38;21.90;99.90
18408;DHT22;9330;52.210;21.174;2022-07-30T08:09:05;22.00;99.90
18408;DHT22;9330;52.210;21.174;2022-07-30T08:11:33;22.20;99.90
18408;DHT22;9330;52.210;21.174;2022-07-30T08:14:01;22.30;99.90
18408;DHT22;9330;52.210;21.174;2022-07-30T08:16:28;22.40;99.90
18408;DHT22;9330;52.210;21.174;2022-07-30T08:18:55;22.50;99.90
18408;DHT22;9330;52.210;21.174;2022-07-30T08:21:22;22.60;99.90
18408;DHT22;9330;52.210;21.174;2022-07-30T08:23:49;22.80;99.90
18408;DHT22;9330;52.210;21.174;2022-07-30T08:26:16;22.90;99.90
18408;DHT22;9330;52.210;21.174;2022-07-30T08:28:45;22.90;99.90
18408;DHT22;9330;52.210;21.174;2022-07-30T08:31:12;22.90;99.90
18408;DHT22;9330;52.210;21.174;2022-07-30T08:33:39;22.90;99.90
18408;DHT22;9330;52.210;21.174;2022-07-30T08:36:07;22.90;99.90
18408;DHT22;9330;52.210;21.174;2022-07-30T08:38:34;22.90;99.90
18408;DHT22;9330;52.210;21.174;2022-07-30T08:41:01;22.90;99.90
18408;DHT22;9330;52.210;21.174;2022-07-30T08:43:28;22.90;99.90
18408;DHT22;9330;52.210;21.174;2022-07-30T08:45:58;23.00;99.90
18408;DHT22;9330;52.210;21.174;2022-07-30T08:48:27;23.00;99.90
18408;DHT22;9330;52.210;21.174;2022-07-30T08:50:55;22.90;99.90
18408;DHT22;9330;52.210;21.174;2022-07-30T08:53:24;22.90;99.90
18408;DHT22;9330;52.210;21.174;2022-07-30T08:55:52;22.70;99.90
18408;DHT22;9330;52.210;21.174;2022-07-30T08:58:25;22.70;99.90
18408;DHT22;9330;52.210;21.174;2022-07-30T09:00:54;22.60;99.90
18408;DHT22;9330;52.210;21.174;2022-07-30T09:03:23;22.50;99.90
18408;DHT22;9330;52.210;21.174;2022-07-30T09:05:50;22.50;99.90
18408;DHT22;9330;52.210;21.174;2022-07-30T09:08:17;22.50;99.90
18408;DHT22;9330;52.210;21.174;2022-07-30T09:10:46;22.50;99.90
18408;DHT22;9330;52.210;21.174;2022-07-30T09:13:25;22.50;99.90
18408;DHT22;9330;52.210;21.174;2022-07-30T09:15:53;22.40;99.90
18408;DHT22;9330;52.210;21.174;2022-07-30T09:18:29;22.40;99.90
18408;DHT22;9330;52.210;21.174;2022-07-30T09:20:58;22.40;99.90
18408;DHT22;9330;52.210;21.174;2022-07-30T09:23:26;22.40;99.90
18408;DHT22;9330;52.210;21.174;2022-07-30T09:25:53;22.40;99.90
18408;DHT22;9330;52.210;21.174;2022-07-30T09:28:27;22.30;99.90
18408;DHT22;9330;52.210;21.174;2022-07-30T09:30:55;22.40;99.90
18408;DHT22;9330;52.210;21.174;2022-07-30T09:33:38;22.40;99.90
18408;DHT22;9330;52.210;21.174;2022-07-30T09:36:09;22.40;99.90
18408;DHT22;9330;52.210;21.174;2022-07-30T09:38:44;22.40;99.90
18408;DHT22;9330;52.210;21.174;2022-07-30T09:41:13;22.30;99.90
18408;DHT22;9330;52.210;21.174;2022-07-30T09:43:42;22.30;99.90
18408;DHT22;9330;52.210;21.174;2022-07-30T09:46:10;22.20;99.90
18408;DHT22;9330;52.210;21.174;2022-07-30T09:48:39;22.20;99.90
18408;DHT22;9330;52.210;21.174;2022-07-30T09:51:06;22.20;99.90
18408;DHT22;9330;52.210;21.174;2022-07-30T09:53:34;22.10;99.90
18408;DHT22;9330;52.210;21.174;2022-07-30T09:56:22;22.00;99.90
18408;DHT22;9330;52.210;21.174;2022-07-30T09:58:51;22.00;99.90
18408;DHT22;9330;52.210;21.174;2022-07-30T10:01:23;21.90;99.90
18408;DHT22;9330;52.210;21.174;2022-07-30T10:03:58;21.90;99.90
18408;DHT22;9330;52.210;21.174;2022-07-30T10:06:33;21.80;99.90
18408;DHT22;9330;52.210;21.174;2022-07-30T10:09:01;21.80;99.90
18408;DHT22;9330;52.210;21.174;2022-07-30T10:11:39;21.70;99.90
18408;DHT22;9330;52.210;21.174;2022-07-30T10:14:07;21.70;99.90
18408;DHT22;9330;52.210;21.174;2022-07-30T10:16:39;21.60;99.90
18408;DHT22;9330;52.210;21.174;2022-07-30T10:19:08;21.50;99.90
18408;DHT22;9330;52.210;21.174;2022-07-30T10:21:35;21.50;99.90
18408;DHT22;9330;52.210;21.174;2022-07-30T10:24:04;21.40;99.90
18408;DHT22;9330;52.210;21.174;2022-07-30T10:26:32;21.40;99.90
18408;DHT22;9330;52.210;21.174;2022-07-30T10:29:01;21.30;99.90
18408;DHT22;9330;52.210;21.174;2022-07-30T10:31:29;21.30;99.90
18408;DHT22;9330;52.210;21.174;2022-07-30T10:33:56;21.30;99.90
18408;DHT22;9330;52.210;21.174;2022-07-30T10:36:26;21.30;99.90
18408;DHT22;9330;52.210;21.174;2022-07-30T10:38:54;21.20;99.90
18408;DHT22;9330;52.210;21.174;2022-07-30T10:41:33;21.20;99.90
18408;DHT22;9330;52.210;21.174;2022-07-30T10:47:14;21.10;99.90
18408;DHT22;9330;52.210;21.174;2022-07-30T10:50:09;21.10;99.90
18408;DHT22;9330;52.210;21.174;2022-07-30T10:52:51;21.10;99.90
18408;DHT22;9330;52.210;21.174;2022-07-30T10:55:21;21.00;99.90
18408;DHT22;9330;52.210;21.174;2022-07-30T10:58:03;21.00;99.90
18408;DHT22;9330;52.210;21.174;2022-07-30T11:00:32;21.00;99.90
18408;DHT22;9330;52.210;21.174;2022-07-30T11:03:15;21.00;99.90
18408;DHT22;9330;52.210;21.174;2022-07-30T11:05:44;20.90;99.90
18408;DHT22;9330;52.210;21.174;2022-07-30T11:08:32;20.90;99.90
18408;DHT22;9330;52.210;21.174;2022-07-30T11:11:00;20.90;99.90
18408;DHT22;9330;52.210;21.174;2022-07-30T11:13:49;20.90;99.90
18408;DHT22;9330;52.210;21.174;2022-07-30T11:16:17;20.80;99.90
18408;DHT22;9330;52.210;21.174;2022-07-30T11:19:05;20.80;99.90
18408;DHT22;9330;52.210;21.174;2022-07-30T11:21:34;20.80;99.90
18408;DHT22;9330;52.210;21.174;2022-07-30T11:24:03;20.80;99.90
18408;DHT22;9330;52.210;21.174;2022-07-30T11:26:50;20.70;99.90
18408;DHT22;9330;52.210;21.174;2022-07-30T11:29:37;20.70;99.90
18408;DHT22;9330;52.210;21.174;2022-07-30T11:32:28;20.60;99.90
18408;DHT22;9330;52.210;21.174;2022-07-30T11:35:15;20.60;99.90
18408;DHT22;9330;52.210;21.174;2022-07-30T11:37:59;20.50;99.90
18408;DHT22;9330;52.210;21.174;2022-07-30T11:40:30;20.50;99.90
18408;DHT22;9330;52.210;21.174;2022-07-30T11:43:21;20.50;99.90
18408;DHT22;9330;52.210;21.174;2022-07-30T11:45:50;20.40;99.90
18408;DHT22;9330;52.210;21.174;2022-07-30T11:48:19;20.30;99.90
18408;DHT22;9330;52.210;21.174;2022-07-30T11:50:47;20.30;99.90
18408;DHT22;9330;52.210;21.174;2022-07-30T11:53:17;20.30;99.90
18408;DHT22;9330;52.210;21.174;2022-07-30T11:55:51;20.20;99.90
18408;DHT22;9330;52.210;21.174;2022-07-30T11:58:24;20.10;99.90
18408;DHT22;9330;52.210;21.174;2022-07-30T12:00:53;20.10;99.90
18408;DHT22;9330;52.210;21.174;2022-07-30T12:03:21;20.10;99.90
18408;DHT22;9330;52.210;21.174;2022-07-30T12:05:49;20.00;99.90
18408;DHT22;9330;52.210;21.174;2022-07-30T12:08:17;20.00;99.90
18408;DHT22;9330;52.210;21.174;2022-07-30T12:10:56;20.00;99.90
18408;DHT22;9330;52.210;21.174;2022-07-30T12:13:24;19.80;99.90
18408;DHT22;9330;52.210;21.174;2022-07-30T12:15:51;19.80;99.90
18408;DHT22;9330;52.210;21.174;2022-07-30T12:18:25;19.70;99.90
18408;DHT22;9330;52.210;21.174;2022-07-30T12:20:54;19.70;99.90
18408;DHT22;9330;52.210;21.174;2022-07-30T12:23:22;19.60;99.90
18408;DHT22;9330;52.210;21.174;2022-07-30T12:25:49;19.50;99.90
18408;DHT22;9330;52.210;21.174;2022-07-30T12:28:22;19.50;99.90
18408;DHT22;9330;52.210;21.174;2022-07-30T12:30:50;19.50;99.90
18408;DHT22;9330;52.210;21.174;2022-07-30T12:33:18;19.40;99.90
18408;DHT22;9330;52.210;21.174;2022-07-30T12:35:46;19.30;99.90
18408;DHT22;9330;52.210;21.174;2022-07-30T12:38:14;19.30;99.90
18408;DHT22;9330;52.210;21.174;2022-07-30T12:40:52;19.20;99.90
18408;DHT22;9330;52.210;21.174;2022-07-30T12:43:44;19.20;99.90
18408;DHT22;9330;52.210;21.174;2022-07-30T12:46:13;19.20;99.90
18408;DHT22;9330;52.210;21.174;2022-07-30T12:48:54;19.20;99.90
18408;DHT22;9330;52.210;21.174;2022-07-30T12:51:23;19.20;99.90
18408;DHT22;9330;52.210;21.174;2022-07-30T12:53:50;19.10;99.90
18408;DHT22;9330;52.210;21.174;2022-07-30T12:56:20;19.20;99.90
18408;DHT22;9330;52.210;21.174;2022-07-30T12:58:49;19.10;99.90
18408;DHT22;9330;52.210;21.174;2022-07-30T13:01:16;19.10;99.90
18408;DHT22;9330;52.210;21.174;2022-07-30T13:03:43;19.10;99.90
18408;DHT22;9330;52.210;21.174;2022-07-30T13:06:16;19.10;99.90
18408;DHT22;9330;52.210;21.174;2022-07-30T13:08:51;19.10;99.90
18408;DHT22;9330;52.210;21.174;2022-07-30T13:11:19;19.10;99.90
18408;DHT22;9330;52.210;21.174;2022-07-30T13:13:47;19.20;99.90
18408;DHT22;9330;52.210;21.174;2022-07-30T13:16:16;19.20;99.90
18408;DHT22;9330;52.210;21.174;2022-07-30T13:18:44;19.20;99.90
18408;DHT22;9330;52.210;21.174;2022-07-30T13:21:11;19.30;99.90
18408;DHT22;9330;52.210;21.174;2022-07-30T13:23:39;19.30;99.90
18408;DHT22;9330;52.210;21.174;2022-07-30T13:26:08;19.30;99.90
18408;DHT22;9330;52.210;21.174;2022-07-30T13:28:37;19.30;99.90
18408;DHT22;9330;52.210;21.174;2022-07-30T13:31:05;19.30;99.90
18408;DHT22;9330;52.210;21.174;2022-07-30T13:33:35;19.30;99.90
18408;DHT22;9330;52.210;21.174;2022-07-30T13:36:03;19.30;99.90
18408;DHT22;9330;52.210;21.174;2022-07-30T13:38:30;19.40;99.90
18408;DHT22;9330;52.210;21.174;2022-07-30T13:40:58;19.40;99.90
18408;DHT22;9330;52.210;21.174;2022-07-30T13:43:25;19.40;99.90
18408;DHT22;9330;52.210;21.174;2022-07-30T13:45:52;19.30;99.90
18408;DHT22;9330;52.210;21.174;2022-07-30T13:48:20;19.40;99.90
18408;DHT22;9330;52.210;21.174;2022-07-30T13:50:53;19.40;99.90
18408;DHT22;9330;52.210;21.174;2022-07-30T13:53:22;19.40;99.90
18408;DHT22;9330;52.210;21.174;2022-07-30T13:55:50;19.40;99.90
18408;DHT22;9330;52.210;21.174;2022-07-30T13:58:17;19.40;99.90
18408;DHT22;9330;52.210;21.174;2022-07-30T14:00:45;19.30;99.90
18408;DHT22;9330;52.210;21.174;2022-07-30T14:03:13;19.30;99.90
18408;DHT22;9330;52.210;21.174;2022-07-30T14:05:53;19.30;99.90
18408;DHT22;9330;52.210;21.174;2022-07-30T14:08:21;19.30;99.90
18408;DHT22;9330;52.210;21.174;2022-07-30T14:10:49;19.30;99.90
18408;DHT22;9330;52.210;21.174;2022-07-30T14:13:17;19.20;99.90
18408;DHT22;9330;52.210;21.174;2022-07-30T14:15:44;19.20;99.90
18408;DHT22;9330;52.210;21.174;2022-07-30T14:18:13;19.20;99.90
18408;DHT22;9330;52.210;21.174;2022-07-30T14:20:41;19.10;99.90
18408;DHT22;9330;52.210;21.174;2022-07-30T14:23:13;19.10;99.90
18408;DHT22;9330;52.210;21.174;2022-07-30T14:25:40;19.10;99.90
18408;DHT22;9330;52.210;21.174;2022-07-30T14:28:10;19.00;99.90
18408;DHT22;9330;52.210;21.174;2022-07-30T14:30:38;19.10;99.90
18408;DHT22;9330;52.210;21.174;2022-07-30T14:33:06;19.00;99.90
18408;DHT22;9330;52.210;21.174;2022-07-30T14:35:35;19.10;99.90
18408;DHT22;9330;52.210;21.174;2022-07-30T14:38:02;19.10;99.90
18408;DHT22;9330;52.210;21.174;2022-07-30T14:40:31;19.10;99.90
18408;DHT22;9330;52.210;21.174;2022-07-30T14:42:59;19.10;99.90
18408;DHT22;9330;52.210;21.174;2022-07-30T14:45:26;19.10;99.90
18408;DHT22;9330;52.210;21.174;2022-07-30T14:47:53;19.10;99.90
18408;DHT22;9330;52.210;21.174;2022-07-30T14:50:21;19.00;99.90
18408;DHT22;9330;52.210;21.174;2022-07-30T14:52:48;19.10;99.90
18408;DHT22;9330;52.210;21.174;2022-07-30T14:55:17;19.10;99.90
18408;DHT22;9330;52.210;21.174;2022-07-30T14:57:46;19.00;99.90
18408;DHT22;9330;52.210;21.174;2022-07-30T15:00:15;19.00;99.90
18408;DHT22;9330;52.210;21.174;2022-07-30T15:02:42;19.10;99.90
18408;DHT22;9330;52.210;21.174;2022-07-30T15:05:10;19.00;99.90
18408;DHT22;9330;52.210;21.174;2022-07-30T15:07:38;19.00;99.90
18408;DHT22;9330;52.210;21.174;2022-07-30T15:10:06;19.00;99.90
18408;DHT22;9330;52.210;21.174;2022-07-30T15:12:34;19.10;99.90
18408;DHT22;9330;52.210;21.174;2022-07-30T15:15:06;19.00;99.90
18408;DHT22;9330;52.210;21.174;2022-07-30T15:17:33;19.10;99.90
18408;DHT22;9330;52.210;21.174;2022-07-30T15:20:05;19.00;99.90
18408;DHT22;9330;52.210;21.174;2022-07-30T15:22:34;19.00;99.90
18408;DHT22;9330;52.210;21.174;2022-07-30T15:25:01;19.00;99.90
18408;DHT22;9330;52.210;21.174;2022-07-30T15:27:28;19.00;99.90
18408;DHT22;9330;52.210;21.174;2022-07-30T15:29:55;19.00;99.90
18408;DHT22;9330;52.210;21.174;2022-07-30T15:32:23;19.00;99.90
18408;DHT22;9330;52.210;21.174;2022-07-30T15:34:50;19.00;99.90
18408;DHT22;9330;52.210;21.174;2022-07-30T15:37:17;19.00;99.90
18408;DHT22;9330;52.210;21.174;2022-07-30T15:39:44;18.90;99.90
18408;DHT22;9330;52.210;21.174;2022-07-30T15:42:12;18.90;99.90
18408;DHT22;9330;52.210;21.174;2022-07-30T15:44:39;18.90;99.90
18408;DHT22;9330;52.210;21.174;2022-07-30T15:47:06;18.90;99.90